sensor_id;sensor_type;location;lat;lon;timestamp;temperature;humidity
4874;DHT22;2451;49.970;9.068;2023-06-10T00:00:16;18.30;99.90
4874;DHT22;2451;49.970;9.068;2023-06-10T00:02:42;18.20;99.90
4874;DHT22;2451;49.970;9.068;2023-06-10T00:05:09;18.20;99.90
4874;DHT22;2451;49.970;9.068;2023-06-10T00:07:35;18.10;99.90
4874;DHT22;2451;49.970;9.068;2023-06-10T00:10:05;18.10;99.90
4874;DHT22;2451;49.970;9.068;2023-06-10T00:12:31;18.00;99.90
4874;DHT22;2451;49.970;9.068;2023-06-10T00:15:05;18.00;99.90
4874;DHT22;2451;49.970;9.068;2023-06-10T00:17:31;17.90;99.90
4874;DHT22;2451;49.970;9.068;2023-06-10T00:19:58;17.90;99.90
4874;DHT22;2451;49.970;9.068;2023-06-10T00:22:23;17.90;99.90
4874;DHT22;2451;49.970;9.068;2023-06-10T00:24:49;17.90;99.90
4874;DHT22;2451;49.970;9.068;2023-06-10T00:27:16;17.90;99.90
4874;DHT22;2451;49.970;9.068;2023-06-10T00:29:41;17.80;99.90
4874;DHT22;2451;49.970;9.068;2023-06-10T00:32:07;17.80;99.90
4874;DHT22;2451;49.970;9.068;2023-06-10T00:34:33;17.80;99.90
4874;DHT22;2451;49.970;9.068;2023-06-10T00:36:58;17.70;99.90
4874;DHT22;2451;49.970;9.068;2023-06-10T00:39:24;17.70;99.90
4874;DHT22;2451;49.970;9.068;2023-06-10T00:41:49;17.70;99.90
4874;DHT22;2451;49.970;9.068;2023-06-10T00:44:15;17.70;99.90
4874;DHT22;2451;49.970;9.068;2023-06-10T00:46:41;17.60;99.90
4874;DHT22;2451;49.970;9.068;2023-06-10T00:49:07;17.50;99.90
4874;DHT22;2451;49.970;9.068;2023-06-10T00:51:33;17.40;99.90
4874;DHT22;2451;49.970;9.068;2023-06-10T00:54:00;17.40;99.90
4874;DHT22;2451;49.970;9.068;2023-06-10T00:56:25;17.40;99.90
4874;DHT22;2451;49.970;9.068;2023-06-10T00:58:52;17.40;99.90
4874;DHT22;2451;49.970;9.068;2023-06-10T01:01:17;17.40;99.90
4874;DHT22;2451;49.970;9.068;2023-06-10T01:03:43;17.40;99.90
4874;DHT22;2451;49.970;9.068;2023-06-10T01:09:12;17.20;99.90
4874;DHT22;2451;49.970;9.068;2023-06-10T01:11:47;17.20;99.90
4874;DHT22;2451;49.970;9.068;2023-06-10T01:14:17;17.20;99.90
4874;DHT22;2451;49.970;9.068;2023-06-10T01:16:43;17.00;99.90
4874;DHT22;2451;49.970;9.068;2023-06-10T01:19:11;17.00;99.90
4874;DHT22;2451;49.970;9.068;2023-06-10T01:21:38;17.00;99.90
4874;DHT22;2451;49.970;9.068;2023-06-10T01:24:04;16.90;99.90
4874;DHT22;2451;49.970;9.068;2023-06-10T01:26:34;16.90;99.90
4874;DHT22;2451;49.970;9.068;2023-06-10T01:29:05;16.80;99.90
4874;DHT22;2451;49.970;9.068;2023-06-10T01:31:51;16.90;99.90
4874;DHT22;2451;49.970;9.068;2023-06-10T01:34:18;16.90;99.90
4874;DHT22;2451;49.970;9.068;2023-06-10T01:36:47;16.90;99.90
4874;DHT22;2451;49.970;9.068;2023-06-10T01:39:14;16.90;99.90
4874;DHT22;2451;49.970;9.068;2023-06-10T01:41:41;16.80;99.90
4874;DHT22;2451;49.970;9.068;2023-06-10T01:44:07;16.90;99.90
4874;DHT22;2451;49.970;9.068;2023-06-10T01:46:32;16.80;99.90
4874;DHT22;2451;49.970;9.068;2023-06-10T01:48:58;16.80;99.90
4874;DHT22;2451;49.970;9.068;2023-06-10T01:51:24;16.80;99.90
4874;DHT22;2451;49.970;9.068;2023-06-10T01:53:49;16.80;99.90
4874;DHT22;2451;49.970;9.068;2023-06-10T01:56:15;16.80;99.90
4874;DHT22;2451;49.970;9.068;2023-06-10T01:58:43;16.80;99.90
4874;DHT22;2451;49.970;9.068;2023-06-10T02:01:09;16.80;99.90
4874;DHT22;2451;49.970;9.068;2023-06-10T02:03:35;16.80;99.90
4874;DHT22;2451;49.970;9.068;2023-06-10T02:06:00;16.80;99.90
4874;DHT22;2451;49.970;9.068;2023-06-10T02:08:26;16.80;99.90
4874;DHT22;2451;49.970;9.068;2023-06-10T02:10:53;16.70;99.90
4874;DHT22;2451;49.970;9.068;2023-06-10T02:13:18;16.80;99.90
4874;DHT22;2451;49.970;9.068;2023-06-10T02:15:44;16.70;99.90
4874;DHT22;2451;49.970;9.068;2023-06-10T02:18:10;16.60;99.90
4874;DHT22;2451;49.970;9.068;2023-06-10T02:20:39;16.50;99.90
4874;DHT22;2451;49.970;9.068;2023-06-10T02:23:05;16.50;99.90
4874;DHT22;2451;49.970;9.068;2023-06-10T02:25:31;16.40;99.90
4874;DHT22;2451;49.970;9.068;2023-06-10T02:27:56;16.40;99.90
4874;DHT22;2451;49.970;9.068;2023-06-10T02:30:22;16.30;99.90
4874;DHT22;2451;49.970;9.068;2023-06-10T02:32:47;16.30;99.90
4874;DHT22;2451;49.970;9.068;2023-06-10T02:35:16;16.30;99.90
4874;DHT22;2451;49.970;9.068;2023-06-10T02:37:42;16.20;99.90
4874;DHT22;2451;49.970;9.068;2023-06-10T02:40:09;16.20;99.90
4874;DHT22;2451;49.970;9.068;2023-06-10T02:42:34;16.10;99.90
4874;DHT22;2451;49.970;9.068;2023-06-10T02:45:00;16.10;99.90
4874;DHT22;2451;49.970;9.068;2023-06-10T02:47:26;16.20;99.90
4874;DHT22;2451;49.970;9.068;2023-06-10T02:49:51;16.10;99.90
4874;DHT22;2451;49.970;9.068;2023-06-10T02:52:17;16.20;99.90
4874;DHT22;2451;49.970;9.068;2023-06-10T02:54:42;16.10;99.90
4874;DHT22;2451;49.970;9.068;2023-06-10T02:57:08;16.10;99.90
4874;DHT22;2451;49.970;9.068;2023-06-10T02:59:35;16.10;99.90
4874;DHT22;2451;49.970;9.068;2023-06-10T03:02:00;16.00;99.90
4874;DHT22;2451;49.970;9.068;2023-06-10T03:04:26;16.00;99.90
4874;DHT22;2451;49.970;9.068;2023-06-10T03:06:54;16.00;99.90
4874;DHT22;2451;49.970;9.068;2023-06-10T03:09:20;15.90;99.90
4874;DHT22;2451;49.970;9.068;2023-06-10T03:11:46;15.90;99.90
4874;DHT22;2451;49.970;9.068;2023-06-10T03:14:11;15.90;99.90
4874;DHT22;2451;49.970;9.068;2023-06-10T03:16:37;15.90;99.90
4874;DHT22;2451;49.970;9.068;2023-06-10T03:19:06;15.80;99.90
4874;DHT22;2451;49.970;9.068;2023-06-10T03:21:33;15.70;99.90
4874;DHT22;2451;49.970;9.068;2023-06-10T03:23:58;15.70;99.90
4874;DHT22;2451;49.970;9.068;2023-06-10T03:26:24;15.70;99.90
4874;DHT22;2451;49.970;9.068;2023-06-10T03:28:49;15.60;99.90
4874;DHT22;2451;49.970;9.068;2023-06-10T03:31:15;15.60;99.90
4874;DHT22;2451;49.970;9.068;2023-06-10T03:33:42;15.60;99.90
4874;DHT22;2451;49.970;9.068;2023-06-10T03:36:08;15.60;99.90
4874;DHT22;2451;49.970;9.068;2023-06-10T03:38:33;15.60;99.90
4874;DHT22;2451;49.970;9.068;2023-06-10T03:40:58;15.60;99.90
4874;DHT22;2451;49.970;9.068;2023-06-10T03:43:24;15.60;99.90
4874;DHT22;2451;49.970;9.068;2023-06-10T03:45:50;15.60;99.90
4874;DHT22;2451;49.970;9.068;2023-06-10T03:48:15;15.60;99.90
4874;DHT22;2451;49.970;9.068;2023-06-10T03:50:41;15.60;99.90
4874;DHT22;2451;49.970;9.068;2023-06-10T03:53:07;15.60;99.90
4874;DHT22;2451;49.970;9.068;2023-06-10T03:55:32;15.60;99.90
4874;DHT22;2451;49.970;9.068;2023-06-10T03:57:58;15.50;99.90
4874;DHT22;2451;49.970;9.068;2023-06-10T04:00:24;15.50;99.90
4874;DHT22;2451;49.970;9.068;2023-06-10T04:02:49;15.50;99.90
4874;DHT22;2451;49.970;9.068;2023-06-10T04:05:16;15.50;99.90
4874;DHT22;2451;49.970;9.068;2023-06-10T04:07:43;15.50;99.90
4874;DHT22;2451;49.970;9.068;2023-06-10T04:10:10;15.60;99.90
4874;DHT22;2451;49.970;9.068;2023-06-10T04:12:36;15.60;99.90
4874;DHT22;2451;49.970;9.068;2023-06-10T04:15:03;15.60;99.90
4874;DHT22;2451;49.970;9.068;2023-06-10T04:17:28;15.70;99.90
4874;DHT22;2451;49.970;9.068;2023-06-10T04:19:54;15.70;99.90
4874;DHT22;2451;49.970;9.068;2023-06-10T04:22:20;15.70;99.90
4874;DHT22;2451;49.970;9.068;2023-06-10T04:24:46;15.80;99.90
4874;DHT22;2451;49.970;9.068;2023-06-10T04:27:11;15.80;99.90
4874;DHT22;2451;49.970;9.068;2023-06-10T04:29:37;15.90;99.90
4874;DHT22;2451;49.970;9.068;2023-06-10T04:32:03;16.00;99.90
4874;DHT22;2451;49.970;9.068;2023-06-10T04:34:28;16.10;99.90
4874;DHT22;2451;49.970;9.068;2023-06-10T04:36:54;16.20;99.90
4874;DHT22;2451;49.970;9.068;2023-06-10T04:39:19;16.20;99.90
4874;DHT22;2451;49.970;9.068;2023-06-10T04:41:45;16.30;99.90
4874;DHT22;2451;49.970;9.068;2023-06-10T04:44:12;16.40;99.90
4874;DHT22;2451;49.970;9.068;2023-06-10T04:46:37;16.50;99.90
4874;DHT22;2451;49.970;9.068;2023-06-10T04:49:03;16.50;99.90
4874;DHT22;2451;49.970;9.068;2023-06-10T04:51:30;16.60;99.90
4874;DHT22;2451;49.970;9.068;2023-06-10T04:53:55;16.70;99.90
4874;DHT22;2451;49.970;9.068;2023-06-10T04:56:21;16.80;99.90
4874;DHT22;2451;49.970;9.068;2023-06-10T04:58:47;16.90;99.90
4874;DHT22;2451;49.970;9.068;2023-06-10T05:01:13;17.10;99.90
4874;DHT22;2451;49.970;9.068;2023-06-10T05:03:38;17.30;99.90
4874;DHT22;2451;49.970;9.068;2023-06-10T05:06:04;17.50;99.90
4874;DHT22;2451;49.970;9.068;2023-06-10T05:08:30;17.60;99.90
4874;DHT22;2451;49.970;9.068;2023-06-10T05:10:55;17.70;99.90
4874;DHT22;2451;49.970;9.068;2023-06-10T05:13:21;17.80;99.90
4874;DHT22;2451;49.970;9.068;2023-06-10T05:15:46;17.80;99.90
4874;DHT22;2451;49.970;9.068;2023-06-10T05:18:12;17.90;99.90
4874;DHT22;2451;49.970;9.068;2023-06-10T05:20:38;18.00;99.90
4874;DHT22;2451;49.970;9.068;2023-06-10T05:23:03;18.10;99.90
4874;DHT22;2451;49.970;9.068;2023-06-10T05:25:32;18.20;99.90
4874;DHT22;2451;49.970;9.068;2023-06-10T05:27:58;18.30;99.90
4874;DHT22;2451;49.970;9.068;2023-06-10T05:30:24;18.40;99.90
4874;DHT22;2451;49.970;9.068;2023-06-10T05:32:50;18.50;99.90
4874;DHT22;2451;49.970;9.068;2023-06-10T05:35:16;18.60;99.90
4874;DHT22;2451;49.970;9.068;2023-06-10T05:37:42;18.70;99.90
4874;DHT22;2451;49.970;9.068;2023-06-10T05:40:09;18.80;99.90
4874;DHT22;2451;49.970;9.068;2023-06-10T05:42:34;18.90;99.90
4874;DHT22;2451;49.970;9.068;2023-06-10T05:45:00;19.00;99.90
4874;DHT22;2451;49.970;9.068;2023-06-10T05:47:26;19.10;99.90
4874;DHT22;2451;49.970;9.068;2023-06-10T05:49:51;19.20;99.90
4874;DHT22;2451;49.970;9.068;2023-06-10T05:52:17;19.30;99.90
4874;DHT22;2451;49.970;9.068;2023-06-10T05:54:43;19.40;99.90
4874;DHT22;2451;49.970;9.068;2023-06-10T05:57:09;19.50;99.90
4874;DHT22;2451;49.970;9.068;2023-06-10T05:59:35;19.70;99.90
4874;DHT22;2451;49.970;9.068;2023-06-10T06:02:01;19.80;99.90
4874;DHT22;2451;49.970;9.068;2023-06-10T06:04:26;19.90;99.90
4874;DHT22;2451;49.970;9.068;2023-06-10T06:06:52;20.00;99.90
4874;DHT22;2451;49.970;9.068;2023-06-10T06:09:17;20.20;99.90
4874;DHT22;2451;49.970;9.068;2023-06-10T06:11:43;20.30;99.90
4874;DHT22;2451;49.970;9.068;2023-06-10T06:14:08;20.40;99.90
4874;DHT22;2451;49.970;9.068;2023-06-10T06:16:34;20.50;99.90
4874;DHT22;2451;49.970;9.068;2023-06-10T06:18:59;20.60;99.90
4874;DHT22;2451;49.970;9.068;2023-06-10T06:21:25;20.70;99.90
4874;DHT22;2451;49.970;9.068;2023-06-10T06:23:50;20.90;99.90
4874;DHT22;2451;49.970;9.068;2023-06-10T06:26:16;21.10;99.90
4874;DHT22;2451;49.970;9.068;2023-06-10T06:28:42;21.10;99.90
4874;DHT22;2451;49.970;9.068;2023-06-10T06:31:07;21.30;99.90
4874;DHT22;2451;49.970;9.068;2023-06-10T06:33:33;21.40;99.90
4874;DHT22;2451;49.970;9.068;2023-06-10T06:35:58;21.50;99.90
4874;DHT22;2451;49.970;9.068;2023-06-10T06:38:25;21.60;99.90
4874;DHT22;2451;49.970;9.068;2023-06-10T06:40:51;21.70;99.90
4874;DHT22;2451;49.970;9.068;2023-06-10T06:43:16;21.80;99.90
4874;DHT22;2451;49.970;9.068;2023-06-10T06:45:44;22.00;99.90
4874;DHT22;2451;49.970;9.068;2023-06-10T06:48:10;22.20;99.90
4874;DHT22;2451;49.970;9.068;2023-06-10T06:50:36;22.30;99.90
4874;DHT22;2451;49.970;9.068;2023-06-10T06:53:02;22.50;99.90
4874;DHT22;2451;49.970;9.068;2023-06-10T06:55:27;22.60;99.90
4874;DHT22;2451;49.970;9.068;2023-06-10T06:57:53;22.70;99.90
4874;DHT22;2451;49.970;9.068;2023-06-10T07:00:18;22.80;99.90
4874;DHT22;2451;49.970;9.068;2023-06-10T07:02:44;22.90;99.90
4874;DHT22;2451;49.970;9.068;2023-06-10T07:05:10;22.90;99.90
4874;DHT22;2451;49.970;9.068;2023-06-10T07:07:35;23.10;99.90
4874;DHT22;2451;49.970;9.068;2023-06-10T07:10:01;23.20;99.90
4874;DHT22;2451;49.970;9.068;2023-06-10T07:12:26;23.30;99.90
4874;DHT22;2451;49.970;9.068;2023-06-10T07:14:52;23.50;99.90
4874;DHT22;2451;49.970;9.068;2023-06-10T07:17:17;23.80;99.90
4874;DHT22;2451;49.970;9.068;2023-06-10T07:19:44;24.00;99.90
4874;DHT22;2451;49.970;9.068;2023-06-10T07:22:09;24.20;99.90
4874;DHT22;2451;49.970;9.068;2023-06-10T07:24:35;24.00;99.90
4874;DHT22;2451;49.970;9.068;2023-06-10T07:27:01;24.30;99.90
4874;DHT22;2451;49.970;9.068;2023-06-10T07:29:26;24.40;99.90
4874;DHT22;2451;49.970;9.068;2023-06-10T07:31:52;24.50;99.90
4874;DHT22;2451;49.970;9.068;2023-06-10T07:34:18;24.50;99.90
4874;DHT22;2451;49.970;9.068;2023-06-10T07:36:44;24.40;99.90
4874;DHT22;2451;49.970;9.068;2023-06-10T07:39:09;24.60;99.90
4874;DHT22;2451;49.970;9.068;2023-06-10T07:41:35;24.70;99.90
4874;DHT22;2451;49.970;9.068;2023-06-10T07:44:01;24.90;99.90
4874;DHT22;2451;49.970;9.068;2023-06-10T07:46:27;25.30;99.90
4874;DHT22;2451;49.970;9.068;2023-06-10T07:48:54;25.70;99.90
4874;DHT22;2451;49.970;9.068;2023-06-10T07:51:21;25.90;99.90
4874;DHT22;2451;49.970;9.068;2023-06-10T07:53:46;25.80;99.90
4874;DHT22;2451;49.970;9.068;2023-06-10T07:56:12;26.10;99.90
4874;DHT22;2451;49.970;9.068;2023-06-10T07:58:38;26.30;99.90
4874;DHT22;2451;49.970;9.068;2023-06-10T08:01:03;26.30;99.90
4874;DHT22;2451;49.970;9.068;2023-06-10T08:03:29;26.50;99.90
4874;DHT22;2451;49.970;9.068;2023-06-10T08:05:55;26.90;99.80
4874;DHT22;2451;49.970;9.068;2023-06-10T08:08:20;26.90;99.50
4874;DHT22;2451;49.970;9.068;2023-06-10T08:10:46;27.10;99.10
4874;DHT22;2451;49.970;9.068;2023-06-10T08:13:11;27.40;99.40
4874;DHT22;2451;49.970;9.068;2023-06-10T08:15:37;27.80;97.00
4874;DHT22;2451;49.970;9.068;2023-06-10T08:18:02;28.00;96.50
4874;DHT22;2451;49.970;9.068;2023-06-10T08:20:28;28.20;94.40
4874;DHT22;2451;49.970;9.068;2023-06-10T08:22:54;28.20;94.40
4874;DHT22;2451;49.970;9.068;2023-06-10T08:25:19;28.40;93.30
4874;DHT22;2451;49.970;9.068;2023-06-10T08:27:47;28.30;92.20
4874;DHT22;2451;49.970;9.068;2023-06-10T08:30:13;28.40;93.20
4874;DHT22;2451;49.970;9.068;2023-06-10T08:32:38;28.70;92.10
4874;DHT22;2451;49.970;9.068;2023-06-10T08:35:04;29.00;92.20
4874;DHT22;2451;49.970;9.068;2023-06-10T08:37:30;29.30;92.00
4874;DHT22;2451;49.970;9.068;2023-06-10T08:39:56;29.50;92.20
4874;DHT22;2451;49.970;9.068;2023-06-10T08:42:44;29.70;91.10
4874;DHT22;2451;49.970;9.068;2023-06-10T08:45:16;29.80;86.00
4874;DHT22;2451;49.970;9.068;2023-06-10T08:47:44;29.60;82.30
4874;DHT22;2451;49.970;9.068;2023-06-10T08:50:11;29.60;81.80
4874;DHT22;2451;49.970;9.068;2023-06-10T08:52:37;29.50;82.00
4874;DHT22;2451;49.970;9.068;2023-06-10T08:55:17;29.60;80.00
4874;DHT22;2451;49.970;9.068;2023-06-10T08:57:45;29.40;78.50
4874;DHT22;2451;49.970;9.068;2023-06-10T09:00:11;29.50;80.50
4874;DHT22;2451;49.970;9.068;2023-06-10T09:02:38;29.60;79.30
4874;DHT22;2451;49.970;9.068;2023-06-10T09:05:04;29.80;77.70
4874;DHT22;2451;49.970;9.068;2023-06-10T09:07:31;29.90;78.00
4874;DHT22;2451;49.970;9.068;2023-06-10T09:09:57;30.00;78.70
4874;DHT22;2451;49.970;9.068;2023-06-10T09:12:24;29.80;76.40
4874;DHT22;2451;49.970;9.068;2023-06-10T09:14:49;29.80;76.50
4874;DHT22;2451;49.970;9.068;2023-06-10T09:17:16;30.00;77.30
4874;DHT22;2451;49.970;9.068;2023-06-10T09:19:42;30.10;74.10
4874;DHT22;2451;49.970;9.068;2023-06-10T09:22:09;30.20;73.80
4874;DHT22;2451;49.970;9.068;2023-06-10T09:24:35;30.20;72.70
4874;DHT22;2451;49.970;9.068;2023-06-10T09:27:08;30.30;71.60
4874;DHT22;2451;49.970;9.068;2023-06-10T09:29:52;30.40;72.90
4874;DHT22;2451;49.970;9.068;2023-06-10T09:32:18;30.50;70.50
4874;DHT22;2451;49.970;9.068;2023-06-10T09:34:45;30.20;69.10
4874;DHT22;2451;49.970;9.068;2023-06-10T09:37:11;30.20;69.20
4874;DHT22;2451;49.970;9.068;2023-06-10T09:39:39;30.10;67.60
4874;DHT22;2451;49.970;9.068;2023-06-10T09:42:18;29.80;67.10
4874;DHT22;2451;49.970;9.068;2023-06-10T09:44:50;29.80;68.60
4874;DHT22;2451;49.970;9.068;2023-06-10T09:47:20;29.70;67.10
4874;DHT22;2451;49.970;9.068;2023-06-10T09:49:46;29.80;66.30
4874;DHT22;2451;49.970;9.068;2023-06-10T09:52:12;29.60;66.80
4874;DHT22;2451;49.970;9.068;2023-06-10T09:54:37;29.80;67.20
4874;DHT22;2451;49.970;9.068;2023-06-10T09:57:07;29.80;65.40
4874;DHT22;2451;49.970;9.068;2023-06-10T09:59:34;30.10;66.30
4874;DHT22;2451;49.970;9.068;2023-06-10T10:02:01;30.00;64.90
4874;DHT22;2451;49.970;9.068;2023-06-10T10:04:26;30.10;64.80
4874;DHT22;2451;49.970;9.068;2023-06-10T10:06:53;30.40;65.90
4874;DHT22;2451;49.970;9.068;2023-06-10T10:09:19;30.60;64.60
4874;DHT22;2451;49.970;9.068;2023-06-10T10:11:45;30.80;63.10
4874;DHT22;2451;49.970;9.068;2023-06-10T10:14:11;30.80;62.20
4874;DHT22;2451;49.970;9.068;2023-06-10T10:16:41;31.00;61.70
4874;DHT22;2451;49.970;9.068;2023-06-10T10:19:21;30.60;60.50
4874;DHT22;2451;49.970;9.068;2023-06-10T10:21:53;30.10;61.10
4874;DHT22;2451;49.970;9.068;2023-06-10T10:24:30;30.00;61.70
4874;DHT22;2451;49.970;9.068;2023-06-10T10:27:01;30.40;61.30
4874;DHT22;2451;49.970;9.068;2023-06-10T10:29:35;30.40;60.30
4874;DHT22;2451;49.970;9.068;2023-06-10T10:32:01;30.30;60.10
4874;DHT22;2451;49.970;9.068;2023-06-10T10:37:00;31.00;61.30
4874;DHT22;2451;49.970;9.068;2023-06-10T10:39:26;31.30;59.70
4874;DHT22;2451;49.970;9.068;2023-06-10T10:41:54;31.30;58.90
4874;DHT22;2451;49.970;9.068;2023-06-10T10:44:20;31.40;58.50
4874;DHT22;2451;49.970;9.068;2023-06-10T10:46:50;31.30;57.40
4874;DHT22;2451;49.970;9.068;2023-06-10T10:49:17;31.50;58.00
4874;DHT22;2451;49.970;9.068;2023-06-10T10:51:59;31.60;57.00
4874;DHT22;2451;49.970;9.068;2023-06-10T10:54:29;31.50;57.70
4874;DHT22;2451;49.970;9.068;2023-06-10T10:57:23;31.30;56.70
4874;DHT22;2451;49.970;9.068;2023-06-10T11:02:34;31.50;56.60
4874;DHT22;2451;49.970;9.068;2023-06-10T11:05:01;31.70;54.70
4874;DHT22;2451;49.970;9.068;2023-06-10T11:07:30;31.70;54.50
4874;DHT22;2451;49.970;9.068;2023-06-10T11:10:02;31.90;55.60
4874;DHT22;2451;49.970;9.068;2023-06-10T11:15:13;31.90;53.00
4874;DHT22;2451;49.970;9.068;2023-06-10T11:18:20;32.00;53.20
4874;DHT22;2451;49.970;9.068;2023-06-10T11:29:00;32.70;53.20
4874;DHT22;2451;49.970;9.068;2023-06-10T11:31:29;33.00;52.80
4874;DHT22;2451;49.970;9.068;2023-06-10T11:34:00;33.40;53.00
4874;DHT22;2451;49.970;9.068;2023-06-10T11:36:27;33.30;50.10
4874;DHT22;2451;49.970;9.068;2023-06-10T11:39:03;33.00;50.80
4874;DHT22;2451;49.970;9.068;2023-06-10T11:41:30;32.90;49.90
4874;DHT22;2451;49.970;9.068;2023-06-10T11:44:08;32.60;50.00
4874;DHT22;2451;49.970;9.068;2023-06-10T11:46:34;32.60;51.30
4874;DHT22;2451;49.970;9.068;2023-06-10T11:49:01;33.00;53.60
4874;DHT22;2451;49.970;9.068;2023-06-10T11:51:33;33.10;50.90
4874;DHT22;2451;49.970;9.068;2023-06-10T11:53:59;33.00;50.70
4874;DHT22;2451;49.970;9.068;2023-06-10T11:56:27;32.80;50.70
4874;DHT22;2451;49.970;9.068;2023-06-10T11:59:03;32.20;51.60
4874;DHT22;2451;49.970;9.068;2023-06-10T12:01:37;31.70;51.40
4874;DHT22;2451;49.970;9.068;2023-06-10T12:04:15;31.60;51.30
4874;DHT22;2451;49.970;9.068;2023-06-10T12:06:43;31.80;50.30
4874;DHT22;2451;49.970;9.068;2023-06-10T12:11:42;31.60;52.20
4874;DHT22;2451;49.970;9.068;2023-06-10T12:14:09;32.00;52.00
4874;DHT22;2451;49.970;9.068;2023-06-10T12:16:34;31.90;52.20
4874;DHT22;2451;49.970;9.068;2023-06-10T12:19:04;32.00;52.30
4874;DHT22;2451;49.970;9.068;2023-06-10T12:21:32;32.20;52.00
4874;DHT22;2451;49.970;9.068;2023-06-10T12:24:08;32.50;51.60
4874;DHT22;2451;49.970;9.068;2023-06-10T12:26:44;32.80;51.60
4874;DHT22;2451;49.970;9.068;2023-06-10T12:29:23;32.60;51.00
4874;DHT22;2451;49.970;9.068;2023-06-10T12:32:02;32.80;51.30
4874;DHT22;2451;49.970;9.068;2023-06-10T12:34:36;33.20;50.70
4874;DHT22;2451;49.970;9.068;2023-06-10T12:37:04;33.30;49.40
4874;DHT22;2451;49.970;9.068;2023-06-10T12:39:32;32.80;49.10
4874;DHT22;2451;49.970;9.068;2023-06-10T12:41:58;32.80;50.10
4874;DHT22;2451;49.970;9.068;2023-06-10T12:44:31;33.10;49.50
4874;DHT22;2451;49.970;9.068;2023-06-10T12:46:57;33.20;48.80
4874;DHT22;2451;49.970;9.068;2023-06-10T12:49:23;33.30;48.80
4874;DHT22;2451;49.970;9.068;2023-06-10T12:51:50;33.50;49.10
4874;DHT22;2451;49.970;9.068;2023-06-10T12:54:15;33.20;47.80
4874;DHT22;2451;49.970;9.068;2023-06-10T12:56:41;32.90;47.80
4874;DHT22;2451;49.970;9.068;2023-06-10T12:59:06;32.50;48.50
4874;DHT22;2451;49.970;9.068;2023-06-10T13:01:32;32.00;48.70
4874;DHT22;2451;49.970;9.068;2023-06-10T13:03:58;32.00;48.30
4874;DHT22;2451;49.970;9.068;2023-06-10T13:06:24;32.30;48.30
4874;DHT22;2451;49.970;9.068;2023-06-10T13:08:49;32.30;48.00
4874;DHT22;2451;49.970;9.068;2023-06-10T13:11:16;31.90;47.70
4874;DHT22;2451;49.970;9.068;2023-06-10T13:13:41;31.70;48.50
4874;DHT22;2451;49.970;9.068;2023-06-10T13:16:08;32.10;48.60
4874;DHT22;2451;49.970;9.068;2023-06-10T13:18:34;32.50;48.50
4874;DHT22;2451;49.970;9.068;2023-06-10T13:21:05;32.80;49.70
4874;DHT22;2451;49.970;9.068;2023-06-10T13:23:30;33.00;49.40
4874;DHT22;2451;49.970;9.068;2023-06-10T13:25:57;32.90;49.60
4874;DHT22;2451;49.970;9.068;2023-06-10T13:28:22;32.20;49.40
4874;DHT22;2451;49.970;9.068;2023-06-10T13:30:48;31.60;49.90
4874;DHT22;2451;49.970;9.068;2023-06-10T13:33:14;31.50;50.80
4874;DHT22;2451;49.970;9.068;2023-06-10T13:35:39;31.10;51.60
4874;DHT22;2451;49.970;9.068;2023-06-10T13:38:05;31.00;52.80
4874;DHT22;2451;49.970;9.068;2023-06-10T13:40:32;31.30;52.20
4874;DHT22;2451;49.970;9.068;2023-06-10T13:42:58;31.50;51.90
4874;DHT22;2451;49.970;9.068;2023-06-10T13:45:23;31.70;51.20
4874;DHT22;2451;49.970;9.068;2023-06-10T13:47:50;32.10;50.80
4874;DHT22;2451;49.970;9.068;2023-06-10T13:50:15;31.90;49.90
4874;DHT22;2451;49.970;9.068;2023-06-10T13:52:41;31.80;50.00
4874;DHT22;2451;49.970;9.068;2023-06-10T13:55:06;31.80;50.10
4874;DHT22;2451;49.970;9.068;2023-06-10T13:57:32;31.90;49.30
4874;DHT22;2451;49.970;9.068;2023-06-10T13:59:58;31.40;49.10
4874;DHT22;2451;49.970;9.068;2023-06-10T14:02:23;31.20;50.10
4874;DHT22;2451;49.970;9.068;2023-06-10T14:04:49;31.20;50.80
4874;DHT22;2451;49.970;9.068;2023-06-10T14:07:14;31.50;48.40
4874;DHT22;2451;49.970;9.068;2023-06-10T14:09:40;31.60;47.60
4874;DHT22;2451;49.970;9.068;2023-06-10T14:12:06;31.90;48.90
4874;DHT22;2451;49.970;9.068;2023-06-10T14:14:32;32.30;48.70
4874;DHT22;2451;49.970;9.068;2023-06-10T14:16:58;32.50;48.30
4874;DHT22;2451;49.970;9.068;2023-06-10T14:19:24;32.70;48.10
4874;DHT22;2451;49.970;9.068;2023-06-10T14:21:50;32.80;48.20
4874;DHT22;2451;49.970;9.068;2023-06-10T14:24:15;33.00;48.50
4874;DHT22;2451;49.970;9.068;2023-06-10T14:26:41;32.70;48.20
4874;DHT22;2451;49.970;9.068;2023-06-10T14:29:06;32.30;48.40
4874;DHT22;2451;49.970;9.068;2023-06-10T14:31:32;32.10;48.60
4874;DHT22;2451;49.970;9.068;2023-06-10T14:33:58;32.00;47.60
4874;DHT22;2451;49.970;9.068;2023-06-10T14:36:23;31.90;48.70
4874;DHT22;2451;49.970;9.068;2023-06-10T14:38:49;31.90;47.30
4874;DHT22;2451;49.970;9.068;2023-06-10T14:41:15;32.10;47.40
4874;DHT22;2451;49.970;9.068;2023-06-10T14:43:40;32.20;46.50
4874;DHT22;2451;49.970;9.068;2023-06-10T14:46:06;32.20;47.30
4874;DHT22;2451;49.970;9.068;2023-06-10T14:48:31;32.20;47.10
4874;DHT22;2451;49.970;9.068;2023-06-10T14:50:57;32.30;46.80
4874;DHT22;2451;49.970;9.068;2023-06-10T14:53:22;32.30;46.10
4874;DHT22;2451;49.970;9.068;2023-06-10T14:55:48;32.30;46.60
4874;DHT22;2451;49.970;9.068;2023-06-10T14:58:14;32.30;47.10
4874;DHT22;2451;49.970;9.068;2023-06-10T15:00:39;32.30;46.40
4874;DHT22;2451;49.970;9.068;2023-06-10T15:03:05;32.30;48.00
4874;DHT22;2451;49.970;9.068;2023-06-10T15:05:30;32.20;48.20
4874;DHT22;2451;49.970;9.068;2023-06-10T15:07:56;32.20;48.70
4874;DHT22;2451;49.970;9.068;2023-06-10T15:10:21;31.90;47.90
4874;DHT22;2451;49.970;9.068;2023-06-10T15:12:47;31.60;49.20
4874;DHT22;2451;49.970;9.068;2023-06-10T15:15:13;31.10;49.70
4874;DHT22;2451;49.970;9.068;2023-06-10T15:17:39;30.80;50.60
4874;DHT22;2451;49.970;9.068;2023-06-10T15:20:05;30.60;50.50
4874;DHT22;2451;49.970;9.068;2023-06-10T15:22:31;30.60;51.40
4874;DHT22;2451;49.970;9.068;2023-06-10T15:24:56;30.80;52.20
4874;DHT22;2451;49.970;9.068;2023-06-10T15:27:23;31.10;51.80
4874;DHT22;2451;49.970;9.068;2023-06-10T15:29:48;31.20;51.30
4874;DHT22;2451;49.970;9.068;2023-06-10T15:32:14;31.30;50.60
4874;DHT22;2451;49.970;9.068;2023-06-10T15:34:39;31.30;48.70
4874;DHT22;2451;49.970;9.068;2023-06-10T15:37:05;31.30;48.10
4874;DHT22;2451;49.970;9.068;2023-06-10T15:39:30;31.20;47.60
4874;DHT22;2451;49.970;9.068;2023-06-10T15:41:56;31.10;47.30
4874;DHT22;2451;49.970;9.068;2023-06-10T15:44:22;31.20;46.60
4874;DHT22;2451;49.970;9.068;2023-06-10T15:46:47;31.30;46.60
4874;DHT22;2451;49.970;9.068;2023-06-10T15:49:13;31.30;46.20
4874;DHT22;2451;49.970;9.068;2023-06-10T15:51:39;31.30;46.10
4874;DHT22;2451;49.970;9.068;2023-06-10T15:54:04;31.40;45.90
4874;DHT22;2451;49.970;9.068;2023-06-10T15:56:30;31.50;46.70
4874;DHT22;2451;49.970;9.068;2023-06-10T15:58:55;31.60;47.30
4874;DHT22;2451;49.970;9.068;2023-06-10T16:01:21;31.50;46.70
4874;DHT22;2451;49.970;9.068;2023-06-10T16:03:46;31.50;47.30
4874;DHT22;2451;49.970;9.068;2023-06-10T16:06:12;31.40;47.50
4874;DHT22;2451;49.970;9.068;2023-06-10T16:08:37;31.40;48.00
4874;DHT22;2451;49.970;9.068;2023-06-10T16:11:03;31.30;50.00
4874;DHT22;2451;49.970;9.068;2023-06-10T16:13:29;31.00;51.20
4874;DHT22;2451;49.970;9.068;2023-06-10T16:15:55;30.40;52.00
4874;DHT22;2451;49.970;9.068;2023-06-10T16:18:20;30.10;53.30
4874;DHT22;2451;49.970;9.068;2023-06-10T16:20:46;29.70;53.50